Hyundai Dominion — A8IK7 — position and weather

sailwx.info

Track history (hours):
 
Tides and Currents Weather Stations Pressure Air Temp Water Temp Dewpoint Dewpoint Depression Visibility Wind Speed Wind Dir Waves Ship Positions

Hyundai Dominion

Last reported at 2015-Jun-17 08:29 UTC. Time now 2015-Jul-01 15:12 UTC.
Position N 01°15' E 103°43'.
Warning: this ship's position is 14 days out of date.

Length 304 m; draft 13.5 m.

Type: Ship (hazmat cat A). MMSI: 636090990.

Date/timePositionNaut miles runAvg speedWind from/ knotsBaromVisibWave heightAir tempDewpointWater temp
2015-Jun-17 08:29N 01°15' E 103°43'2 2.4
2015-Jun-17 07:31N 01°17' E 103°45'0 0.0
2015-Jun-17 06:31N 01°17' E 103°45'0 0.0
2015-Jun-17 05:31N 01°17' E 103°45'0 0.0
2015-Jun-17 02:19N 01°17' E 103°45'0 0.0
2015-Jun-17 00:25N 01°17' E 103°45'0 0.0
2015-Jun-16 23:31N 01°17' E 103°45'0 0.0
2015-Jun-16 22:25N 01°17' E 103°45'0 0.0
2015-Jun-16 21:31N 01°17' E 103°45'0 0.0
2015-Jun-16 20:28N 01°17' E 103°45'0 0.0
2015-Jun-16 19:28N 01°17' E 103°45'0 0.0
2015-Jun-16 18:31N 01°17' E 103°45'0 0.0
2015-Jun-16 17:28N 01°17' E 103°45'0 0.0
2015-Jun-16 16:31N 01°17' E 103°45'0 0.0
2015-Jun-16 15:31N 01°17' E 103°45'0 0.0
2015-Jun-16 14:31N 01°17' E 103°45'0 0.0
2015-Jun-16 13:28N 01°17' E 103°45'0 0.0
2015-Jun-16 12:31N 01°17' E 103°45'0 0.0
2015-Jun-16 11:31N 01°17' E 103°45'1 0.6
2015-Jun-16 10:31N 01°16' E 103°45'7 6.3
2015-Jun-16 09:25N 01°12' E 103°51'6 7.1
2015-Jun-16 08:33N 01°15' E 103°57'9 9.2
2015-Jun-16 07:33N 01°17' E 104°06'  
2015-Jun-12 12:32N 23°39' E 117°57'4118.7
2015-Jun-12 10:21N 24°05' E 118°32'2218.5
2015-Jun-12 09:10N 24°19' E 118°49'1818.2
2015-Jun-12 08:10N 24°30' E 119°06'1118.0
2015-Jun-12 07:33N 24°36' E 119°16'3517.4
2015-Jun-12 05:30N 24°59' E 119°45'31318.0
2015-Jun-11 12:08N 29°35' E 122°31'915.9
2015-Jun-11 11:33N 29°42' E 122°25'1111.1
2015-Jun-11 10:33N 29°49' E 122°14'1010.5
2015-Jun-11 09:33N 29°54' E 122°04'1 0.7
2015-Jun-11 08:31N 29°53' E 122°03'0 0.0
2015-Jun-11 07:31N 29°53' E 122°03'0 0.0
2015-Jun-11 06:19N 29°53' E 122°03'0 0.0
2015-Jun-11 05:31N 29°53' E 122°03'0 0.0
2015-Jun-11 04:31N 29°53' E 122°03'0 0.0
2015-Jun-11 03:31N 29°53' E 122°03'0 0.0
2015-Jun-11 01:25N 29°53' E 122°03'0 0.0
2015-Jun-11 00:31N 29°53' E 122°03'0 0.0
2015-Jun-10 23:31N 29°53' E 122°03'0 0.0
2015-Jun-10 22:31N 29°53' E 122°03'0 0.1
2015-Jun-10 21:31N 29°53' E 122°03'7 6.9
2015-Jun-10 20:33N 29°53' E 122°11'1212.0
2015-Jun-10 19:33N 29°45' E 122°21'8 8.4
2015-Jun-10 18:33N 29°43' E 122°31'8 7.9
2015-Jun-10 17:31N 29°43' E 122°40'  
Track history (hours):
 
Tides and Currents Weather Stations Pressure Air Temp Water Temp Dewpoint Dewpoint Depression Visibility Wind Speed Wind Dir Waves Ship Positions

Hyundai Dominion

Last reported at 2015-Jun-17 08:29 UTC. Time now 2015-Jul-01 15:12 UTC.
Position N 01°15' E 103°43'.
Warning: this ship's position is 14 days out of date.

Length 304 m; draft 13.5 m.

Type: Ship (hazmat cat A). MMSI: 636090990.

Date/timePositionNaut miles runAvg speedWind from/ knotsBaromVisibWave heightAir tempDewpointWater temp
2015-Jun-17 08:29N 01°15' E 103°43'2 2.4
2015-Jun-17 07:31N 01°17' E 103°45'0 0.0
2015-Jun-17 06:31N 01°17' E 103°45'0 0.0
2015-Jun-17 05:31N 01°17' E 103°45'0 0.0
2015-Jun-17 02:19N 01°17' E 103°45'0 0.0
2015-Jun-17 00:25N 01°17' E 103°45'0 0.0
2015-Jun-16 23:31N 01°17' E 103°45'0 0.0
2015-Jun-16 22:25N 01°17' E 103°45'0 0.0
2015-Jun-16 21:31N 01°17' E 103°45'0 0.0
2015-Jun-16 20:28N 01°17' E 103°45'0 0.0
2015-Jun-16 19:28N 01°17' E 103°45'0 0.0
2015-Jun-16 18:31N 01°17' E 103°45'0 0.0
2015-Jun-16 17:28N 01°17' E 103°45'0 0.0
2015-Jun-16 16:31N 01°17' E 103°45'0 0.0
2015-Jun-16 15:31N 01°17' E 103°45'0 0.0
2015-Jun-16 14:31N 01°17' E 103°45'0 0.0
2015-Jun-16 13:28N 01°17' E 103°45'0 0.0
2015-Jun-16 12:31N 01°17' E 103°45'0 0.0
2015-Jun-16 11:31N 01°17' E 103°45'1 0.6
2015-Jun-16 10:31N 01°16' E 103°45'7 6.3
2015-Jun-16 09:25N 01°12' E 103°51'6 7.1
2015-Jun-16 08:33N 01°15' E 103°57'9 9.2
2015-Jun-16 07:33N 01°17' E 104°06'  
2015-Jun-12 12:32N 23°39' E 117°57'4118.7
2015-Jun-12 10:21N 24°05' E 118°32'2218.5
2015-Jun-12 09:10N 24°19' E 118°49'1818.2
2015-Jun-12 08:10N 24°30' E 119°06'1118.0
2015-Jun-12 07:33N 24°36' E 119°16'3517.4
2015-Jun-12 05:30N 24°59' E 119°45'31318.0
2015-Jun-11 12:08N 29°35' E 122°31'915.9
2015-Jun-11 11:33N 29°42' E 122°25'1111.1
2015-Jun-11 10:33N 29°49' E 122°14'1010.5
2015-Jun-11 09:33N 29°54' E 122°04'1 0.7
2015-Jun-11 08:31N 29°53' E 122°03'0 0.0
2015-Jun-11 07:31N 29°53' E 122°03'0 0.0
2015-Jun-11 06:19N 29°53' E 122°03'0 0.0
2015-Jun-11 05:31N 29°53' E 122°03'0 0.0
2015-Jun-11 04:31N 29°53' E 122°03'0 0.0
2015-Jun-11 03:31N 29°53' E 122°03'0 0.0
2015-Jun-11 01:25N 29°53' E 122°03'0 0.0
2015-Jun-11 00:31N 29°53' E 122°03'0 0.0
2015-Jun-10 23:31N 29°53' E 122°03'0 0.0
2015-Jun-10 22:31N 29°53' E 122°03'0 0.1
2015-Jun-10 21:31N 29°53' E 122°03'7 6.9
2015-Jun-10 20:33N 29°53' E 122°11'1212.0
2015-Jun-10 19:33N 29°45' E 122°21'8 8.4
2015-Jun-10 18:33N 29°43' E 122°31'8 7.9
2015-Jun-10 17:31N 29°43' E 122°40'  

Dump ship's entire track history